Time;durP1;ratioP1;P1;durP2;ratioP2;P2;SDS_P1;SDS_P2;PMS_P1;PMS_P2;Temp;Humidity;BMP_temperature;BMP_pressure;BME280_temperature;BME280_humidity;BME280_pressure;Samples;Min_cycle;Max_cycle;Signal;HPM_P1;HPM_P2
2022/07/20 00:01:26;;;;;;;2.50;2.13;;;26.70;49.30;;;;;;6221702;23;20221;-84
2022/07/20 00:03:52;;;;;;;4.15;2.55;;;26.70;49.30;;;;;;6218547;23;20160;-83
2022/07/20 00:06:18;;;;;;;3.60;2.63;;;26.70;49.40;;;;;;6221633;23;20150;-85
2022/07/20 00:11:30;;;;;;;3.65;2.33;;;26.60;49.60;;;;;;6216793;23;20153;-85
2022/07/20 00:14:00;;;;;;;3.03;2.25;;;26.60;49.60;;;;;;6216087;23;20160;-82
2022/07/20 00:16:28;;;;;;;3.67;2.60;;;26.50;49.70;;;;;;6217287;23;20205;-81
2022/07/20 00:18:56;;;;;;;2.58;2.35;;;26.50;49.80;;;;;;6218318;23;20161;-82
2022/07/20 00:21:24;;;;;;;4.18;2.80;;;26.50;50.00;;;;;;6221768;23;20156;-82
2022/07/20 00:23:54;;;;;;;3.55;2.63;;;26.40;49.90;;;;;;6215386;23;20166;-84
2022/07/20 00:26:24;;;;;;;5.63;2.72;;;26.40;50.00;;;;;;6218579;23;20520;-83
2022/07/20 00:28:54;;;;;;;5.00;3.03;;;26.40;50.00;;;;;;6214278;23;20145;-83
2022/07/20 00:31:23;;;;;;;3.95;2.67;;;26.40;49.80;;;;;;6213625;23;20216;-85
2022/07/20 00:33:49;;;;;;;3.97;2.40;;;26.30;49.90;;;;;;6216712;23;20149;-85
2022/07/20 00:36:18;;;;;;;3.47;3.10;;;26.30;50.10;;;;;;6219643;23;20173;-84
2022/07/20 00:38:47;;;;;;;3.13;2.55;;;26.20;50.20;;;;;;6218166;23;20169;-82
2022/07/20 00:41:12;;;;;;;5.47;2.80;;;26.20;50.60;;;;;;6214294;23;20174;-86
2022/07/20 00:43:57;;;;;;;3.70;2.70;;;26.10;50.40;;;;;;6215578;23;20175;-83
2022/07/20 00:46:27;;;;;;;2.95;2.22;;;26.10;51.30;;;;;;6218996;23;20162;-82
2022/07/20 00:48:52;;;;;;;2.78;2.50;;;26.00;50.80;;;;;;6218857;23;20146;-83
2022/07/20 00:51:20;;;;;;;3.60;2.58;;;26.00;50.80;;;;;;6213859;23;20245;-84
2022/07/20 00:53:49;;;;;;;4.60;2.40;;;26.00;51.10;;;;;;6223650;23;20157;-77
2022/07/20 00:56:16;;;;;;;3.30;2.60;;;25.90;51.00;;;;;;6218068;23;20295;-85
2022/07/20 00:58:42;;;;;;;4.03;2.80;;;25.90;51.20;;;;;;6216350;23;20162;-84
2022/07/20 01:01:08;;;;;;;3.65;2.35;;;25.80;51.20;;;;;;6216065;23;20185;-84
2022/07/20 01:03:34;;;;;;;4.35;2.40;;;25.80;51.40;;;;;;6215591;23;20179;-80
2022/07/20 01:06:00;;;;;;;3.13;2.65;;;25.80;51.50;;;;;;6214969;23;20146;-83
2022/07/20 01:08:30;;;;;;;3.70;2.45;;;25.70;52.10;;;;;;6215414;23;20262;-82
2022/07/20 01:10:57;;;;;;;4.00;2.45;;;25.70;51.80;;;;;;6215125;23;20157;-83
2022/07/20 01:13:23;;;;;;;3.65;2.58;;;25.70;51.80;;;;;;6215183;23;20237;-84
2022/07/20 01:15:52;;;;;;;2.97;2.53;;;25.70;52.00;;;;;;6215278;23;20328;-83
2022/07/20 01:18:22;;;;;;;3.35;2.55;;;25.70;52.40;;;;;;6214325;23;20153;-82
2022/07/20 01:20:50;;;;;;;2.95;2.65;;;25.60;52.10;;;;;;6214061;23;20189;-80
2022/07/20 01:23:16;;;;;;;2.88;2.47;;;25.60;52.30;;;;;;6215912;23;20154;-84
2022/07/20 01:25:43;;;;;;;3.28;2.58;;;25.50;52.40;;;;;;6215427;23;20156;-82
2022/07/20 01:28:13;;;;;;;6.60;2.90;;;25.50;52.30;;;;;;6214530;23;20151;-84
2022/07/20 01:30:41;;;;;;;3.50;2.83;;;25.50;52.40;;;;;;6214768;23;20424;-84
2022/07/20 01:33:10;;;;;;;3.15;2.83;;;25.40;52.20;;;;;;6213900;23;20213;-85
2022/07/20 01:35:38;;;;;;;3.65;2.90;;;25.40;52.30;;;;;;6213647;23;20213;-83
2022/07/20 01:38:04;;;;;;;3.90;2.63;;;25.40;52.50;;;;;;6214050;23;20181;-82
2022/07/20 01:40:30;;;;;;;4.30;2.92;;;25.40;52.70;;;;;;6215227;23;20192;-81
2022/07/20 01:42:55;;;;;;;3.80;2.90;;;25.30;52.70;;;;;;6217142;23;20187;-85
2022/07/20 01:45:24;;;;;;;10.25;2.63;;;25.30;52.80;;;;;;6216963;23;20222;-83
2022/07/20 01:47:52;;;;;;;3.70;2.83;;;25.20;52.80;;;;;;6213874;23;20330;-84
2022/07/20 01:50:17;;;;;;;4.20;2.72;;;25.20;53.00;;;;;;6216349;23;20181;-82
2022/07/20 01:52:46;;;;;;;3.33;2.70;;;25.10;53.10;;;;;;6214612;23;20168;-83
2022/07/20 01:55:12;;;;;;;4.18;2.65;;;25.10;53.20;;;;;;6221286;23;20216;-84
2022/07/20 01:57:40;;;;;;;4.10;3.00;;;25.00;53.10;;;;;;6214956;23;20161;-82
2022/07/20 02:00:09;;;;;;;3.78;2.97;;;25.00;53.30;;;;;;6214286;23;20243;-74
2022/07/20 02:02:36;;;;;;;2.83;2.58;;;24.90;53.30;;;;;;6218738;23;20236;-83
2022/07/20 02:05:02;;;;;;;6.43;2.92;;;24.90;53.40;;;;;;6215617;23;20256;-84
2022/07/20 02:07:31;;;;;;;4.15;3.28;;;24.80;53.40;;;;;;6218210;23;20152;-83
2022/07/20 02:09:59;;;;;;;3.33;2.92;;;24.80;53.70;;;;;;6221842;23;20160;-78
2022/07/20 02:12:27;;;;;;;3.08;2.50;;;24.80;53.80;;;;;;6215309;23;20216;-80
2022/07/20 02:14:54;;;;;;;3.88;2.80;;;24.70;53.50;;;;;;6219604;23;20223;-82
2022/07/20 02:17:27;;;;;;;2.92;2.50;;;24.70;53.40;;;;;;6219470;23;20153;-84
2022/07/20 02:19:53;;;;;;;3.20;2.70;;;24.60;54.20;;;;;;6218237;23;20436;-82
2022/07/20 02:22:21;;;;;;;4.88;2.72;;;24.60;53.70;;;;;;6221524;23;20161;-79
2022/07/20 02:24:47;;;;;;;5.93;2.80;;;24.60;53.80;;;;;;6218287;23;20157;-83
2022/07/20 02:27:15;;;;;;;3.10;2.50;;;24.50;53.80;;;;;;6217678;23;20211;-80
2022/07/20 02:29:42;;;;;;;5.72;2.67;;;24.50;54.10;;;;;;6222513;23;20157;-78
2022/07/20 02:32:08;;;;;;;3.50;2.65;;;24.50;54.00;;;;;;6220360;23;20149;-79
2022/07/20 02:34:34;;;;;;;5.72;2.75;;;24.50;54.10;;;;;;6223659;23;20282;-82
2022/07/20 02:37:02;;;;;;;3.78;3.03;;;24.50;54.20;;;;;;6224273;23;20179;-77
2022/07/20 02:39:30;;;;;;;3.42;2.65;;;24.50;54.30;;;;;;6222296;23;20184;-80
2022/07/20 02:41:55;;;;;;;3.20;2.90;;;24.50;54.50;;;;;;6217462;23;20146;-79
2022/07/20 02:44:21;;;;;;;4.63;2.80;;;24.50;54.50;;;;;;6218691;23;20252;-82
2022/07/20 02:46:49;;;;;;;3.13;2.70;;;24.40;54.30;;;;;;6218363;23;20153;-84
2022/07/20 02:49:15;;;;;;;5.55;3.50;;;24.40;54.50;;;;;;6215623;23;20303;-83
2022/07/20 02:51:40;;;;;;;3.25;2.58;;;24.40;54.60;;;;;;6215537;23;20235;-80
2022/07/20 02:54:06;;;;;;;3.92;2.60;;;24.40;54.50;;;;;;6216526;23;20154;-81
2022/07/20 02:56:32;;;;;;;3.53;2.40;;;24.40;54.50;;;;;;6215557;23;20154;-78
2022/07/20 02:59:02;;;;;;;6.40;3.03;;;24.40;54.60;;;;;;6214383;23;20158;-82
2022/07/20 03:01:31;;;;;;;3.55;2.83;;;24.40;54.50;;;;;;6214746;23;20157;-82
2022/07/20 03:03:56;;;;;;;4.00;2.72;;;24.40;54.60;;;;;;6214739;23;20184;-82
2022/07/20 03:06:22;;;;;;;3.85;2.65;;;24.40;54.50;;;;;;6214652;23;20171;-78
2022/07/20 03:08:47;;;;;;;3.35;2.70;;;24.40;54.40;;;;;;6214002;23;20232;-81
2022/07/20 03:11:15;;;;;;;3.28;2.65;;;24.40;54.50;;;;;;6215073;23;20173;-83
2022/07/20 03:13:43;;;;;;;3.33;2.65;;;24.40;54.60;;;;;;6214632;23;20153;-80
2022/07/20 03:16:08;;;;;;;3.92;2.60;;;24.40;54.60;;;;;;6214475;23;20182;-84
2022/07/20 03:18:39;;;;;;;3.60;2.65;;;24.40;54.60;;;;;;6215211;23;20241;-83
2022/07/20 03:21:04;;;;;;;4.95;2.40;;;24.40;54.50;;;;;;6214786;23;20207;-82
2022/07/20 03:23:30;;;;;;;2.50;2.30;;;24.40;54.50;;;;;;6215745;23;20149;-81
2022/07/20 03:25:56;;;;;;;3.35;2.65;;;24.40;54.50;;;;;;6215992;23;20187;-80
2022/07/20 03:28:21;;;;;;;3.53;2.78;;;24.40;54.60;;;;;;6215672;23;20181;-79
2022/07/20 03:30:52;;;;;;;4.75;2.70;;;24.40;54.70;;;;;;6214699;23;20161;-81
2022/07/20 03:33:17;;;;;;;4.18;2.50;;;24.40;54.60;;;;;;6214389;23;20213;-83
2022/07/20 03:35:43;;;;;;;3.75;2.50;;;24.40;54.60;;;;;;6214655;23;20154;-81
2022/07/20 03:38:11;;;;;;;4.30;2.75;;;24.40;54.50;;;;;;6214690;23;20153;-82
2022/07/20 03:40:39;;;;;;;3.75;2.47;;;24.30;54.60;;;;;;6214595;23;20193;-83
2022/07/20 03:43:05;;;;;;;3.55;2.60;;;24.40;54.90;;;;;;6214909;23;20173;-83
2022/07/20 03:45:33;;;;;;;3.75;2.58;;;24.30;54.90;;;;;;6215227;23;20231;-83
2022/07/20 03:48:03;;;;;;;4.50;2.83;;;24.30;55.10;;;;;;6215707;23;20221;-77
2022/07/20 03:50:31;;;;;;;6.43;2.53;;;24.30;55.00;;;;;;6214785;23;20177;-82
2022/07/20 03:52:57;;;;;;;5.63;3.15;;;24.30;55.10;;;;;;6214672;23;20212;-81
2022/07/20 03:55:22;;;;;;;6.90;2.83;;;24.20;55.40;;;;;;6214392;23;20150;-79
2022/07/20 03:57:55;;;;;;;4.43;3.20;;;24.20;55.40;;;;;;6214609;23;20284;-80
2022/07/20 04:00:21;;;;;;;7.28;3.53;;;24.10;56.20;;;;;;6213594;23;20177;-80
2022/07/20 04:02:46;;;;;;;4.70;3.17;;;24.10;56.10;;;;;;6215349;23;20226;-70
2022/07/20 04:05:12;;;;;;;4.65;3.25;;;24.10;55.80;;;;;;6213551;23;20188;-72
2022/07/20 04:07:38;;;;;;;3.88;2.78;;;24.10;55.70;;;;;;6213955;23;20173;-71
2022/07/20 04:10:08;;;;;;;4.25;2.58;;;24.10;55.80;;;;;;6214197;23;20234;-72
2022/07/20 04:12:36;;;;;;;3.95;2.95;;;24.20;55.70;;;;;;6214144;23;20150;-70
2022/07/20 04:15:02;;;;;;;3.63;2.67;;;24.30;55.60;;;;;;6213766;23;20440;-69
2022/07/20 04:17:28;;;;;;;3.83;2.55;;;24.30;55.50;;;;;;6214120;23;20207;-73
2022/07/20 04:19:54;;;;;;;3.15;2.60;;;24.40;55.50;;;;;;6214307;23;20248;-72
2022/07/20 04:22:20;;;;;;;4.18;2.75;;;24.50;55.40;;;;;;6213898;23;20177;-71
2022/07/20 04:24:48;;;;;;;3.88;2.63;;;24.50;55.40;;;;;;6213603;23;20202;-71
2022/07/20 04:27:16;;;;;;;5.63;3.10;;;24.60;55.30;;;;;;6213394;23;20145;-72
2022/07/20 04:29:42;;;;;;;3.88;2.80;;;24.70;55.40;;;;;;6213411;23;20214;-72
2022/07/20 04:32:07;;;;;;;4.82;2.58;;;24.70;55.20;;;;;;6213491;23;20157;-72
2022/07/20 04:34:36;;;;;;;3.58;2.67;;;24.80;55.10;;;;;;6216177;23;20180;-71
2022/07/20 04:37:06;;;;;;;4.78;2.70;;;24.80;54.80;;;;;;6213822;23;20188;-71
2022/07/20 04:39:32;;;;;;;3.92;3.00;;;24.90;54.80;;;;;;6216801;23;20181;-71
2022/07/20 04:42:02;;;;;;;4.30;2.92;;;25.00;54.80;;;;;;6216331;23;20287;-67
2022/07/20 04:44:30;;;;;;;3.97;3.03;;;25.10;54.80;;;;;;6220102;23;20169;-71
2022/07/20 04:46:58;;;;;;;5.53;3.03;;;25.20;55.00;;;;;;6219068;23;20233;-72
2022/07/20 04:49:23;;;;;;;7.82;4.78;;;25.20;54.80;;;;;;6218678;23;20153;-72
2022/07/20 04:51:49;;;;;;;5.47;3.42;;;25.30;54.90;;;;;;6214670;23;20420;-71
2022/07/20 04:54:18;;;;;;;4.43;3.00;;;25.30;54.90;;;;;;6215143;23;20161;-69
2022/07/20 04:56:44;;;;;;;3.42;3.10;;;25.40;54.80;;;;;;6217399;23;20161;-72
2022/07/20 04:59:10;;;;;;;3.63;2.97;;;25.40;54.90;;;;;;6214540;23;20181;-73
2022/07/20 05:01:38;;;;;;;6.80;2.60;;;25.40;55.00;;;;;;6216650;23;20150;-73
2022/07/20 05:04:06;;;;;;;3.45;2.97;;;25.40;55.00;;;;;;6213988;23;20169;-71
2022/07/20 05:06:33;;;;;;;5.43;2.90;;;25.40;54.70;;;;;;6215158;23;20149;-72
2022/07/20 05:09:03;;;;;;;5.65;2.95;;;25.40;54.90;;;;;;6215817;23;20153;-73
2022/07/20 05:11:30;;;;;;;4.50;3.13;;;25.50;55.00;;;;;;6215800;23;20224;-72
2022/07/20 05:13:56;;;;;;;5.60;4.30;;;25.50;54.90;;;;;;6216950;23;20156;-69
2022/07/20 05:16:22;;;;;;;9.10;4.90;;;25.50;54.80;;;;;;6216499;23;20150;-73
2022/07/20 05:18:47;;;;;;;9.50;5.10;;;25.60;55.00;;;;;;6218700;23;20272;-71
2022/07/20 05:21:13;;;;;;;8.05;5.10;;;25.70;55.10;;;;;;6214215;23;20184;-74
2022/07/20 05:23:39;;;;;;;10.35;5.45;;;25.70;55.20;;;;;;6214491;23;20149;-73
2022/07/20 05:26:07;;;;;;;8.15;5.13;;;25.80;55.40;;;;;;6213948;23;20153;-71
2022/07/20 05:28:34;;;;;;;9.70;5.18;;;26.00;55.30;;;;;;6216853;23;20229;-72
2022/07/20 05:31:00;;;;;;;7.18;5.32;;;26.10;55.40;;;;;;6213626;23;20181;-73
2022/07/20 05:33:26;;;;;;;8.48;5.15;;;26.10;55.30;;;;;;6213525;23;20200;-73
2022/07/20 05:35:51;;;;;;;7.80;5.10;;;26.20;55.30;;;;;;6214185;23;20153;-75
2022/07/20 05:38:20;;;;;;;9.07;5.63;;;26.30;55.30;;;;;;6214957;23;20174;-74
2022/07/20 05:40:46;;;;;;;13.15;6.00;;;26.30;55.40;;;;;;6217192;23;20189;-74
2022/07/20 05:43:12;;;;;;;7.28;5.68;;;26.40;55.40;;;;;;6218112;23;20200;-73
2022/07/20 05:45:38;;;;;;;8.20;5.53;;;26.40;55.40;;;;;;6216173;23;20156;-73
2022/07/20 05:48:10;;;;;;;12.10;5.82;;;26.50;55.40;;;;;;6213369;23;20150;-74
2022/07/20 05:50:44;;;;;;;7.88;5.90;;;26.50;55.50;;;;;;6215194;23;20179;-75
2022/07/20 05:53:15;;;;;;;10.15;6.47;;;26.60;55.80;;;;;;6215224;23;20168;-74
2022/07/20 05:55:46;;;;;;;7.78;5.75;;;26.60;55.70;;;;;;6215948;23;20157;-75
2022/07/20 05:58:12;;;;;;;7.32;6.22;;;26.60;55.70;;;;;;6213552;23;20223;-75
2022/07/20 06:00:38;;;;;;;7.45;6.43;;;26.70;55.90;;;;;;6217428;23;20184;-74
2022/07/20 06:03:07;;;;;;;11.18;6.88;;;26.70;55.90;;;;;;6220315;23;20188;-74
2022/07/20 06:05:36;;;;;;;8.85;7.15;;;26.70;56.10;;;;;;6214832;23;20156;-73
2022/07/20 06:08:03;;;;;;;11.90;6.97;;;26.80;56.40;;;;;;6218800;23;20141;-73
2022/07/20 06:10:31;;;;;;;13.80;7.50;;;26.80;56.30;;;;;;6216888;23;20181;-74
2022/07/20 06:13:00;;;;;;;12.07;7.75;;;26.90;56.60;;;;;;6218343;23;20154;-75
2022/07/20 06:15:26;;;;;;;10.93;7.63;;;26.90;56.60;;;;;;6214121;23;20161;-74
2022/07/20 06:17:57;;;;;;;13.70;7.40;;;27.00;56.70;;;;;;6214244;23;20233;-74
2022/07/20 06:20:24;;;;;;;9.60;8.13;;;27.00;56.70;;;;;;6214735;23;20184;-73
2022/07/20 06:22:52;;;;;;;10.65;7.60;;;27.10;57.00;;;;;;6215903;23;20153;-74
2022/07/20 06:25:18;;;;;;;15.05;9.60;;;27.10;57.10;;;;;;6215109;23;20279;-74
2022/07/20 06:27:47;;;;;;;10.48;8.70;;;27.10;57.40;;;;;;6223503;23;20160;-75
2022/07/20 06:30:15;;;;;;;11.38;9.98;;;27.10;57.40;;;;;;6214127;23;20153;-73
2022/07/20 06:32:45;;;;;;;11.40;9.73;;;27.20;57.80;;;;;;6219635;23;20145;-71
2022/07/20 06:35:11;;;;;;;13.73;9.48;;;27.20;58.60;;;;;;6219555;23;20180;-71
2022/07/20 06:37:40;;;;;;;12.70;9.75;;;27.20;58.00;;;;;;6215838;23;20181;-70
2022/07/20 06:40:08;;;;;;;12.60;10.00;;;27.30;58.40;;;;;;6214197;23;20185;-73
2022/07/20 06:42:35;;;;;;;11.38;9.88;;;27.30;58.50;;;;;;6213419;23;20145;-75
2022/07/20 06:45:01;;;;;;;13.43;10.00;;;27.30;58.40;;;;;;6188383;23;20178;-75
2022/07/20 06:47:26;;;;;;;17.60;10.93;;;27.40;58.60;;;;;;6214028;23;20145;-73
2022/07/20 06:49:52;;;;;;;12.95;10.48;;;27.40;58.80;;;;;;6187887;23;20264;-74
2022/07/20 06:52:18;;;;;;;12.32;10.07;;;27.40;58.90;;;;;;6188563;23;20248;-73
2022/07/20 06:54:43;;;;;;;12.10;10.10;;;27.50;59.10;;;;;;6190399;23;20200;-73
2022/07/20 06:57:13;;;;;;;11.27;9.75;;;27.50;59.10;;;;;;6191464;23;20161;-71
2022/07/20 06:59:39;;;;;;;14.30;10.57;;;27.50;59.10;;;;;;6189984;23;20241;-72
2022/07/20 07:02:05;;;;;;;13.45;11.10;;;27.60;59.40;;;;;;6191400;23;20157;-71
2022/07/20 07:04:31;;;;;;;14.73;11.25;;;27.70;59.80;;;;;;6189784;23;20180;-71
2022/07/20 07:06:58;;;;;;;13.48;10.98;;;27.70;60.30;;;;;;6193179;23;20153;-71
2022/07/20 07:09:24;;;;;;;13.65;10.98;;;27.80;59.90;;;;;;6191297;23;20166;-71
2022/07/20 07:11:50;;;;;;;12.70;11.32;;;27.80;60.20;;;;;;6190648;23;20188;-73
2022/07/20 07:14:16;;;;;;;13.27;11.88;;;27.90;60.30;;;;;;6196457;23;20165;-72
2022/07/20 07:16:41;;;;;;;12.93;11.05;;;28.00;60.60;;;;;;6190268;23;20244;-73
2022/07/20 07:19:07;;;;;;;16.50;12.32;;;28.10;60.60;;;;;;6189610;23;20165;-71
2022/07/20 07:21:33;;;;;;;15.50;12.45;;;28.20;61.00;;;;;;6192297;23;20157;-73
2022/07/20 07:23:58;;;;;;;17.05;11.73;;;28.30;61.10;;;;;;6189503;23;20209;-73
2022/07/20 07:26:27;;;;;;;14.15;12.05;;;28.40;60.90;;;;;;6189373;23;20153;-70
2022/07/20 07:28:52;;;;;;;15.50;12.30;;;28.50;60.90;;;;;;6189657;23;20153;-71
2022/07/20 07:31:18;;;;;;;14.27;12.63;;;28.50;60.70;;;;;;6189329;23;20231;-69
2022/07/20 07:33:45;;;;;;;14.60;11.52;;;28.60;60.80;;;;;;6189866;23;20163;-72
2022/07/20 07:36:13;;;;;;;17.42;11.85;;;28.70;60.70;;;;;;6190756;23;20212;-71
2022/07/20 07:38:39;;;;;;;15.07;12.60;;;28.70;60.70;;;;;;6189746;23;20177;-71
2022/07/20 07:41:05;;;;;;;14.50;11.85;;;28.80;61.00;;;;;;6189247;23;20184;-70
2022/07/20 07:43:31;;;;;;;13.40;12.00;;;28.80;60.70;;;;;;6197848;23;20173;-70
2022/07/20 07:45:56;;;;;;;14.50;12.30;;;28.80;60.50;;;;;;6214212;23;20165;-70
2022/07/20 07:48:24;;;;;;;13.30;11.57;;;28.90;60.60;;;;;;6213433;23;20177;-71
2022/07/20 07:50:50;;;;;;;13.25;10.88;;;28.90;60.70;;;;;;6214608;23;20153;-70
2022/07/20 07:53:15;;;;;;;16.35;11.32;;;28.90;60.60;;;;;;6214085;23;20157;-71
2022/07/20 07:55:42;;;;;;;18.42;13.68;;;29.00;60.80;;;;;;6214138;23;20181;-71
2022/07/20 07:58:13;;;;;;;16.88;12.00;;;29.00;61.00;;;;;;6215048;23;20232;-71
2022/07/20 08:00:44;;;;;;;14.50;12.13;;;28.90;60.80;;;;;;6214315;23;20184;-72
2022/07/20 08:03:10;;;;;;;16.58;11.75;;;28.90;60.90;;;;;;6214172;23;20438;-71
2022/07/20 08:05:38;;;;;;;13.43;12.02;;;28.90;60.90;;;;;;6213812;23;20167;-71
2022/07/20 08:08:12;;;;;;;13.10;10.57;;;28.90;61.00;;;;;;6213622;23;20181;-69
2022/07/20 08:10:41;;;;;;;13.82;10.52;;;28.90;61.10;;;;;;6214188;23;20240;-73
2022/07/20 08:13:07;;;;;;;13.10;11.00;;;28.90;60.90;;;;;;6213970;23;20185;-74
2022/07/20 08:15:33;;;;;;;15.48;12.02;;;28.90;60.80;;;;;;6214450;23;20153;-72
2022/07/20 08:18:01;;;;;;;13.82;11.02;;;29.00;61.10;;;;;;6214893;23;20181;-71
2022/07/20 08:20:30;;;;;;;14.15;10.50;;;29.00;61.10;;;;;;6214013;23;20185;-73
2022/07/20 08:23:00;;;;;;;16.55;11.63;;;29.00;61.00;;;;;;6216291;23;20153;-74
2022/07/20 08:25:28;;;;;;;11.10;9.85;;;29.00;61.10;;;;;;6214333;23;20152;-73
2022/07/20 08:27:54;;;;;;;12.52;10.10;;;29.00;60.90;;;;;;6214721;23;20149;-75
2022/07/20 08:30:20;;;;;;;11.88;9.65;;;29.10;61.10;;;;;;6216328;23;20171;-75
2022/07/20 08:32:46;;;;;;;14.45;10.00;;;29.10;60.90;;;;;;6214116;23;20165;-74
2022/07/20 08:35:11;;;;;;;12.55;9.20;;;29.20;61.20;;;;;;6215156;23;20214;-73
2022/07/20 08:37:40;;;;;;;12.02;9.20;;;29.20;61.00;;;;;;6215012;23;20236;-71
2022/07/20 08:40:06;;;;;;;11.25;9.25;;;29.20;61.10;;;;;;6215143;23;20243;-74
2022/07/20 08:42:32;;;;;;;14.07;9.57;;;29.30;61.50;;;;;;6214305;23;20149;-72
2022/07/20 08:45:03;;;;;;;11.05;8.90;;;29.30;61.50;;;;;;6189324;23;20162;-74
2022/07/20 08:47:35;;;;;;;11.80;9.25;;;29.40;61.40;;;;;;6188866;23;20154;-72
2022/07/20 08:50:06;;;;;;;13.70;9.45;;;29.50;61.80;;;;;;6189614;23;20207;-72
2022/07/20 08:52:32;;;;;;;11.05;9.40;;;29.50;61.60;;;;;;6188711;23;20177;-72
2022/07/20 08:54:58;;;;;;;10.88;9.05;;;29.50;61.50;;;;;;6188807;23;20164;-72
2022/07/20 08:57:25;;;;;;;10.43;8.70;;;29.60;61.60;;;;;;6189058;23;20161;-71
2022/07/20 08:59:50;;;;;;;14.85;9.43;;;29.70;61.40;;;;;;6189318;23;20181;-71
2022/07/20 09:02:16;;;;;;;12.15;8.95;;;29.70;61.40;;;;;;6189431;23;20247;-73
2022/07/20 09:04:51;;;;;;;9.65;8.63;;;29.70;61.40;;;;;;6188394;23;20445;-72
2022/07/20 09:07:19;;;;;;;13.45;9.27;;;29.80;61.70;;;;;;6188304;23;20148;-73
2022/07/20 09:09:45;;;;;;;11.90;9.10;;;29.80;61.30;;;;;;6188434;23;20150;-72
2022/07/20 09:12:13;;;;;;;12.20;9.07;;;29.80;61.30;;;;;;6187544;23;20184;-73
2022/07/20 09:14:48;;;;;;;11.98;8.82;;;29.90;61.40;;;;;;6187816;23;20243;-72
2022/07/20 09:17:25;;;;;;;12.63;8.82;;;29.90;61.50;;;;;;6188768;23;20195;-72
2022/07/20 09:20:08;;;;;;;12.48;8.85;;;29.90;61.30;;;;;;6188560;23;20177;-73
2022/07/20 09:22:35;;;;;;;10.80;8.65;;;29.90;61.30;;;;;;6188720;23;20219;-73
2022/07/20 09:25:06;;;;;;;10.63;8.88;;;30.00;61.00;;;;;;6189791;23;20181;-73
2022/07/20 09:27:35;;;;;;;12.32;8.63;;;30.10;61.40;;;;;;6189044;23;20168;-72
2022/07/20 09:30:10;;;;;;;12.02;9.45;;;30.10;61.10;;;;;;6188301;23;20205;-73
2022/07/20 09:33:00;;;;;;;9.90;8.38;;;30.10;61.00;;;;;;6192270;23;20397;-71
2022/07/20 09:35:35;;;;;;;12.40;8.85;;;30.20;61.40;;;;;;6178224;23;20256;-72
2022/07/20 09:38:06;;;;;;;13.43;10.02;;;30.20;60.70;;;;;;6189266;23;20144;-74
2022/07/20 09:40:43;;;;;;;11.57;8.93;;;30.20;60.70;;;;;;6188412;23;20181;-72
2022/07/20 09:43:31;;;;;;;11.13;9.23;;;30.20;60.50;;;;;;6192188;23;20188;-73
2022/07/20 09:46:17;;;;;;;10.80;8.73;;;30.30;60.40;;;;;;6215404;23;20159;-73
2022/07/20 09:48:55;;;;;;;13.25;8.57;;;30.30;59.60;;;;;;6215349;23;20247;-72
2022/07/20 09:51:22;;;;;;;11.27;8.50;;;30.30;59.20;;;;;;6216709;23;20156;-72
2022/07/20 09:53:52;;;;;;;9.45;7.47;;;30.30;58.90;;;;;;6219104;23;20610;-73
2022/07/20 09:56:26;;;;;;;10.85;8.00;;;30.30;59.00;;;;;;6215500;23;20164;-73
2022/07/20 09:58:55;;;;;;;10.25;7.82;;;30.30;58.40;;;;;;6214364;23;20184;-71
2022/07/20 10:01:25;;;;;;;9.20;7.68;;;30.30;58.20;;;;;;6213476;23;20189;-71
2022/07/20 10:03:54;;;;;;;9.80;7.38;;;30.40;58.40;;;;;;6216576;23;20312;-70
2022/07/20 10:06:21;;;;;;;10.70;8.38;;;30.40;58.60;;;;;;6217388;23;20398;-69
2022/07/20 10:08:48;;;;;;;12.75;8.70;;;30.40;58.50;;;;;;6215558;23;20173;-71
2022/07/20 10:11:16;;;;;;;10.07;8.25;;;30.50;58.70;;;;;;6214552;23;20195;-73
2022/07/20 10:13:45;;;;;;;11.43;8.23;;;30.50;58.80;;;;;;6216515;23;20177;-73
2022/07/20 10:16:49;;;;;;;12.57;9.23;;;30.60;58.60;;;;;;6215011;23;20161;-73
2022/07/20 10:19:21;;;;;;;9.45;7.90;;;30.60;58.80;;;;;;6214385;23;20218;-73
2022/07/20 10:21:53;;;;;;;10.18;8.02;;;30.60;58.70;;;;;;6213460;23;20149;-73
2022/07/20 10:24:19;;;;;;;11.35;9.07;;;30.70;58.80;;;;;;6214337;23;20190;-75
2022/07/20 10:26:46;;;;;;;10.73;8.88;;;30.80;58.70;;;;;;6215499;23;20181;-76
2022/07/20 10:29:34;;;;;;;11.07;8.27;;;30.80;58.60;;;;;;6213096;23;20158;-73
2022/07/20 10:32:22;;;;;;;15.02;9.82;;;30.80;58.20;;;;;;6214640;23;20176;-73
2022/07/20 10:35:02;;;;;;;10.90;8.85;;;30.80;58.30;;;;;;6215599;23;20164;-73
2022/07/20 10:37:35;;;;;;;11.77;9.45;;;30.80;58.40;;;;;;6213865;23;20161;-73
2022/07/20 10:40:09;;;;;;;11.02;8.65;;;30.80;58.50;;;;;;6217256;23;20184;-73
2022/07/20 10:42:38;;;;;;;10.75;8.00;;;30.90;58.60;;;;;;6218461;23;20160;-74
2022/07/20 10:45:27;;;;;;;10.30;8.80;;;31.10;58.90;;;;;;6192102;23;20177;-72
2022/07/20 10:47:57;;;;;;;11.88;8.73;;;31.30;58.90;;;;;;6194041;23;20183;-74
2022/07/20 10:50:24;;;;;;;13.18;9.05;;;31.50;58.70;;;;;;6193176;23;20207;-72
2022/07/20 10:52:58;;;;;;;12.38;8.88;;;31.60;58.40;;;;;;6190897;23;20230;-72
2022/07/20 10:55:33;;;;;;;13.02;8.02;;;31.80;57.90;;;;;;6196345;23;20179;-73
2022/07/20 10:58:14;;;;;;;13.82;8.32;;;31.90;57.90;;;;;;6190032;23;20282;-72
2022/07/20 11:00:42;;;;;;;14.80;8.60;;;32.00;57.60;;;;;;6190300;23;20183;-73
2022/07/20 11:03:27;;;;;;;11.57;7.70;;;32.10;57.40;;;;;;6216938;23;20229;-74
2022/07/20 11:06:01;;;;;;;10.60;7.63;;;32.20;57.10;;;;;;6193199;23;20156;-73
2022/07/20 11:08:27;;;;;;;8.25;7.38;;;32.40;57.40;;;;;;6189906;23;20156;-75
2022/07/20 11:10:54;;;;;;;7.70;6.90;;;32.50;57.60;;;;;;6194955;23;20171;-73
2022/07/20 11:13:22;;;;;;;10.00;7.35;;;32.60;58.10;;;;;;6218345;23;20145;-75
2022/07/20 11:15:51;;;;;;;9.85;7.50;;;32.80;57.50;;;;;;6191319;23;20172;-74
2022/07/20 11:18:24;;;;;;;9.02;7.18;;;33.00;57.10;;;;;;6190765;23;20251;-74
2022/07/20 11:20:57;;;;;;;9.55;6.30;;;33.10;56.50;;;;;;6193859;23;20176;-76
2022/07/20 11:23:25;;;;;;;8.77;6.57;;;33.20;56.20;;;;;;6192769;23;20148;-75
2022/07/20 11:26:18;;;;;;;8.05;6.40;;;33.30;56.30;;;;;;6189545;23;20159;-74
2022/07/20 11:28:53;;;;;;;7.85;6.47;;;33.30;55.70;;;;;;6191147;23;20240;-72
2022/07/20 11:31:23;;;;;;;7.97;6.40;;;33.40;55.60;;;;;;6189456;23;20152;-73
2022/07/20 11:34:30;;;;;;;6.78;6.00;;;33.40;55.40;;;;;;6198008;23;20192;-75
2022/07/20 11:37:39;;;;;;;8.80;5.85;;;33.40;55.00;;;;;;6202478;23;20245;-75
2022/07/20 11:40:28;;;;;;;9.90;6.90;;;33.50;54.80;;;;;;6194436;23;20268;-72
2022/07/20 11:43:13;;;;;;;8.00;6.35;;;33.60;54.40;;;;;;6199924;23;20176;-72
2022/07/20 11:45:40;;;;;;;7.88;6.20;;;33.50;53.60;;;;;;6201357;23;20220;-68
2022/07/20 11:48:21;;;;;;;10.93;6.47;;;33.50;54.00;;;;;;6200550;23;20148;-71
2022/07/20 11:50:50;;;;;;;8.70;6.38;;;33.50;53.20;;;;;;6197877;23;20223;-74
2022/07/20 11:53:23;;;;;;;8.98;6.00;;;33.50;54.00;;;;;;6192883;23;20219;-74
2022/07/20 11:55:48;;;;;;;7.97;6.70;;;33.40;53.80;;;;;;6193866;23;20392;-75
2022/07/20 11:58:14;;;;;;;8.43;6.63;;;33.40;54.00;;;;;;6186933;23;20153;-74
2022/07/20 12:00:41;;;;;;;8.98;6.05;;;33.40;54.10;;;;;;6188317;23;20184;-74
2022/07/20 12:03:07;;;;;;;7.15;5.80;;;33.40;54.40;;;;;;6189102;23;20242;-74
2022/07/20 12:05:35;;;;;;;8.30;6.50;;;33.50;54.60;;;;;;6189163;23;20148;-72
2022/07/20 12:08:18;;;;;;;7.60;6.55;;;33.60;54.30;;;;;;6188765;23;20174;-73
2022/07/20 12:10:44;;;;;;;10.40;6.60;;;33.80;53.30;;;;;;6188406;23;20152;-73
2022/07/20 12:13:16;;;;;;;7.95;6.05;;;33.90;54.10;;;;;;6193556;23;20196;-73
2022/07/20 12:15:52;;;;;;;7.22;6.53;;;34.00;53.90;;;;;;6202333;23;20235;-76
2022/07/20 12:18:39;;;;;;;8.88;6.65;;;34.10;53.10;;;;;;6200902;23;20144;-76
2022/07/20 12:21:07;;;;;;;12.35;7.10;;;34.20;52.40;;;;;;6203603;23;20197;-74
2022/07/20 12:23:34;;;;;;;6.90;6.15;;;34.20;52.30;;;;;;6198446;23;20149;-71
2022/07/20 12:26:03;;;;;;;7.43;6.53;;;34.20;52.50;;;;;;6190807;23;20187;-77
2022/07/20 12:28:36;;;;;;;7.45;5.88;;;34.20;52.30;;;;;;6189001;23;20187;-71
2022/07/20 12:31:17;;;;;;;7.10;5.47;;;34.30;52.30;;;;;;6188723;23;20145;-72
2022/07/20 12:34:05;;;;;;;6.28;5.10;;;34.40;52.00;;;;;;6189006;23;20237;-74
2022/07/20 12:36:47;;;;;;;9.23;5.38;;;34.50;51.20;;;;;;6188710;23;20180;-76
2022/07/20 12:39:40;;;;;;;6.85;4.68;;;34.60;50.90;;;;;;6188588;23;20180;-71
2022/07/20 12:42:15;;;;;;;7.38;4.70;;;34.70;50.70;;;;;;6189233;23;20167;-69
2022/07/20 12:44:42;;;;;;;5.95;4.80;;;34.80;51.20;;;;;;6211778;23;20222;-71
2022/07/20 12:47:09;;;;;;;6.35;5.43;;;34.90;51.50;;;;;;6214246;23;20153;-70
2022/07/20 12:49:35;;;;;;;7.60;5.18;;;35.00;51.00;;;;;;6214689;23;20172;-70
2022/07/20 12:52:00;;;;;;;5.07;4.57;;;35.00;50.70;;;;;;6214683;23;20183;-79
2022/07/20 12:54:27;;;;;;;6.00;5.10;;;35.00;50.50;;;;;;6214047;23;20282;-70